Time;durP1;ratioP1;P1;durP2;ratioP2;P2;SDS_P1;SDS_P2;PMS_P1;PMS_P2;Temp;Humidity;BMP_temperature;BMP_pressure;BME280_temperature;BME280_humidity;BME280_pressure;Samples;Min_cycle;Max_cycle;Signal;HPM_P1;HPM_P2
2022/08/04 00:00:14;;;;;;;5.20;1.30;;;;;;;13.35;80.53;100429.97;5034256;28;20044;-80
2022/08/04 00:03:13;;;;;;;8.02;1.80;;;;;;;13.30;80.25;100430.47;5051992;28;20470;-80
2022/08/04 00:05:42;;;;;;;6.57;0.93;;;;;;;13.33;80.22;100437.28;5034374;28;20064;-81
2022/08/04 00:08:28;;;;;;;7.50;1.05;;;;;;;13.33;79.56;100439.94;5054160;28;20094;-81
2022/08/04 00:10:57;;;;;;;5.50;0.63;;;;;;;13.34;79.12;100441.59;5033319;28;20029;-80
2022/08/04 00:13:27;;;;;;;7.35;1.08;;;;;;;13.28;78.90;100441.25;5050841;28;20947;-81
2022/08/04 00:16:03;;;;;;;7.00;0.70;;;;;;;13.25;78.63;100443.41;5052233;28;20136;-80
2022/08/04 00:19:02;;;;;;;10.68;1.00;;;;;;;13.18;78.33;100448.53;5047712;28;20133;-80
2022/08/04 00:21:35;;;;;;;7.90;1.63;;;;;;;13.16;78.67;100447.84;5020094;28;20498;-80
2022/08/04 00:24:01;;;;;;;7.88;1.10;;;;;;;13.08;78.83;100439.88;5055278;28;20041;-80
2022/08/04 00:26:27;;;;;;;4.20;1.10;;;;;;;12.97;79.12;100443.66;5031817;28;20029;-80
2022/08/04 00:28:54;;;;;;;11.68;1.23;;;;;;;12.87;79.60;100454.38;5046988;28;20121;-81
2022/08/04 00:31:21;;;;;;;5.43;1.02;;;;;;;12.70;80.13;100450.81;5053115;28;20391;-80
2022/08/04 00:33:48;;;;;;;10.77;1.23;;;;;;;12.54;81.10;100452.41;5054057;28;20037;-80
2022/08/04 00:36:15;;;;;;;6.32;1.35;;;;;;;12.36;82.23;100458.59;5069397;28;20024;-80
2022/08/04 00:38:42;;;;;;;8.45;1.23;;;;;;;12.23;83.12;100455.53;5047689;28;20044;-80
2022/08/04 00:41:50;;;;;;;7.22;1.15;;;;;;;12.11;83.90;100452.28;5053951;28;20473;-80
2022/08/04 00:44:33;;;;;;;10.80;2.35;;;;;;;12.03;84.75;100453.88;5002747;28;20134;-80
2022/08/04 00:47:17;;;;;;;11.60;1.95;;;;;;;12.00;84.56;100455.97;5048104;28;20039;-80
2022/08/04 00:49:58;;;;;;;15.93;1.20;;;;;;;12.01;84.80;100450.53;5044684;28;20037;-80
2022/08/04 00:52:45;;;;;;;10.77;1.27;;;;;;;12.01;84.60;100450.53;5047050;28;20091;-80
2022/08/04 00:55:34;;;;;;;11.57;2.05;;;;;;;12.07;84.97;100458.84;5037791;28;20041;-80
2022/08/04 00:58:19;;;;;;;7.13;1.02;;;;;;;12.12;84.90;100453.97;5045686;28;20060;-80
2022/08/04 01:01:01;;;;;;;8.50;1.30;;;;;;;12.18;84.02;100453.34;5048663;28;20059;-80
2022/08/04 01:03:54;;;;;;;8.63;1.13;;;;;;;12.22;83.95;100454.69;5048885;28;20059;-80
2022/08/04 01:06:35;;;;;;;7.60;1.25;;;;;;;12.23;83.60;100459.00;5053920;28;20040;-80
2022/08/04 01:09:28;;;;;;;6.50;1.30;;;;;;;12.20;83.77;100453.19;5032236;28;20040;-80
2022/08/04 01:12:33;;;;;;;5.65;0.75;;;;;;;12.21;83.43;100444.25;5035673;28;20441;-80
2022/08/04 01:15:27;;;;;;;9.43;1.60;;;;;;;12.24;83.18;100451.88;5048766;28;20052;-80
2022/08/04 01:17:53;;;;;;;11.93;1.13;;;;;;;12.23;83.20;100453.69;5051518;28;20037;-80
2022/08/04 01:20:23;;;;;;;9.20;1.17;;;;;;;12.21;83.44;100453.03;5056105;28;20028;-80
2022/08/04 01:23:28;;;;;;;6.35;0.95;;;;;;;12.22;83.35;100449.38;5050866;28;20024;-81
2022/08/04 01:26:24;;;;;;;8.32;1.00;;;;;;;12.22;83.01;100449.38;5026977;28;20067;-80
2022/08/04 01:28:59;;;;;;;8.65;1.17;;;;;;;12.18;83.25;100450.69;5050891;28;20035;-80
2022/08/04 01:31:36;;;;;;;9.63;1.00;;;;;;;12.13;83.01;100447.69;5047371;28;20033;-80
2022/08/04 01:34:05;;;;;;;5.85;0.98;;;;;;;12.10;83.57;100454.13;5048023;28;20112;-80
2022/08/04 01:36:34;;;;;;;5.18;1.10;;;;;;;12.11;83.10;100460.25;5072039;28;20115;-80
2022/08/04 01:39:39;;;;;;;9.52;1.20;;;;;;;12.09;83.45;100457.75;5049276;28;20029;-80
2022/08/04 01:41:51;;;;;;;5.32;0.77;;;;;;;12.09;83.23;100459.56;5047769;28;20175;-81
2022/08/04 01:44:18;;;;;;;4.32;0.70;;;;;;;12.11;82.85;100462.88;5075098;28;20079;-80
2022/08/04 01:46:46;;;;;;;8.15;1.50;;;;;;;12.09;82.75;100462.22;5045489;28;20033;-80
2022/08/04 01:49:13;;;;;;;11.60;1.30;;;;;;;12.06;82.94;100463.31;5039928;28;20121;-80
2022/08/04 01:51:39;;;;;;;9.38;1.10;;;;;;;12.02;83.02;100468.09;5043924;28;20579;-80
2022/08/04 01:54:08;;;;;;;6.85;1.00;;;;;;;12.01;83.40;100468.22;5043504;28;20032;-80
2022/08/04 01:56:34;;;;;;;5.35;1.00;;;;;;;11.97;83.06;100464.25;5047218;28;20037;-80
2022/08/04 01:59:02;;;;;;;5.78;1.70;;;;;;;11.98;83.33;100466.72;5042520;28;20058;-80
2022/08/04 02:01:27;;;;;;;5.93;0.65;;;;;;;11.98;83.45;100473.84;5047637;28;20058;-80
2022/08/04 02:03:53;;;;;;;5.45;1.15;;;;;;;11.92;83.16;100475.28;5048888;28;20484;-80
2022/08/04 02:06:30;;;;;;;8.43;1.40;;;;;;;11.93;83.33;100479.59;5051753;28;20491;-80
2022/08/04 02:08:56;;;;;;;8.30;1.02;;;;;;;11.93;83.77;100478.78;5042777;28;20048;-80
2022/08/04 02:11:23;;;;;;;5.32;0.85;;;;;;;11.85;83.36;100463.66;5045993;28;20401;-80
2022/08/04 02:13:52;;;;;;;8.07;1.10;;;;;;;11.83;83.44;100465.63;5048687;28;20048;-80
2022/08/04 02:16:29;;;;;;;11.10;1.15;;;;;;;11.82;83.68;100474.56;5046155;28;20502;-80
2022/08/04 02:19:17;;;;;;;10.32;1.00;;;;;;;11.77;83.78;100470.53;5047813;28;20094;-80
2022/08/04 02:21:47;;;;;;;7.47;0.88;;;;;;;11.78;83.91;100463.44;5044770;28;20379;-80
2022/08/04 02:24:16;;;;;;;8.05;0.90;;;;;;;11.83;83.86;100468.25;5053471;28;20040;-80
2022/08/04 02:26:49;;;;;;;5.20;0.98;;;;;;;11.90;83.08;100477.25;5050346;28;20480;-80
2022/08/04 02:29:51;;;;;;;10.18;1.17;;;;;;;11.92;82.73;100475.28;5050465;28;20033;-80
2022/08/04 02:32:26;;;;;;;5.82;0.90;;;;;;;11.94;83.03;100477.78;5078106;28;20072;-80
2022/08/04 02:34:57;;;;;;;4.40;0.90;;;;;;;11.89;82.83;100483.53;5057361;28;20041;-80
2022/08/04 02:37:25;;;;;;;5.20;0.80;;;;;;;11.85;82.73;100480.34;5070962;28;20040;-80
2022/08/04 02:39:52;;;;;;;6.40;1.38;;;;;;;11.82;83.12;100485.97;5056916;28;20029;-80
2022/08/04 02:42:19;;;;;;;5.65;0.90;;;;;;;11.81;82.79;100481.66;5043816;28;20037;-80
2022/08/04 02:44:50;;;;;;;6.63;0.95;;;;;;;11.79;82.85;100489.75;5049838;28;20538;-80
2022/08/04 02:47:20;;;;;;;8.60;1.35;;;;;;;11.77;82.58;100489.06;5046205;28;20374;-80
2022/08/04 02:49:49;;;;;;;9.60;1.17;;;;;;;11.76;82.59;100489.22;5044282;28;20545;-80
2022/08/04 02:52:17;;;;;;;9.80;1.08;;;;;;;11.73;82.83;100487.72;5049300;28;20044;-80
2022/08/04 02:54:44;;;;;;;7.05;1.15;;;;;;;11.66;82.97;100498.06;5025200;28;20037;-80
2022/08/04 02:57:14;;;;;;;5.40;1.13;;;;;;;11.59;82.62;100499.66;5072843;28;20209;-80
2022/08/04 03:00:09;;;;;;;8.75;1.23;;;;;;;11.51;82.79;100492.47;5073174;28;20029;-81
2022/08/04 03:03:09;;;;;;;3.95;0.80;;;;;;;11.44;83.16;100501.13;5046722;28;20029;-80
2022/08/04 03:06:20;;;;;;;5.95;0.95;;;;;;;11.35;83.44;100500.22;5042691;28;20036;-80
2022/08/04 03:09:08;;;;;;;5.47;1.02;;;;;;;11.37;83.29;100487.69;5048292;28;20059;-80
2022/08/04 03:11:49;;;;;;;13.90;1.30;;;;;;;11.40;83.62;100490.84;5049597;28;20021;-80
2022/08/04 03:14:25;;;;;;;4.63;0.65;;;;;;;11.40;83.16;100500.63;5057889;28;20037;-80
2022/08/04 03:17:16;;;;;;;7.85;1.13;;;;;;;11.35;83.18;100501.06;5056845;28;20078;-81
2022/08/04 03:19:58;;;;;;;3.72;0.88;;;;;;;11.36;83.31;100499.22;5045122;28;20049;-80
2022/08/04 03:22:55;;;;;;;7.00;0.90;;;;;;;11.38;82.97;100502.56;5059723;28;20099;-80
2022/08/04 03:25:27;;;;;;;;;;;;;;;11.29;83.31;100502.47;5075145;28;20029;-80
2022/08/04 03:28:46;;;;;;;8.48;1.25;;;;;;;11.31;82.61;100504.97;5048618;28;20050;-80
2022/08/04 03:31:40;;;;;;;10.82;1.08;;;;;;;11.22;83.01;100511.16;4977661;28;20096;-80
2022/08/04 03:34:25;;;;;;;7.18;1.38;;;;;;;11.08;83.07;100520.41;5041944;28;20037;-80
2022/08/04 03:37:02;;;;;;;5.88;1.00;;;;;;;10.90;84.00;100532.56;5054900;28;20037;-80
2022/08/04 03:40:06;;;;;;;4.18;0.93;;;;;;;10.77;84.49;100529.41;5040470;28;20619;-80
2022/08/04 03:42:52;;;;;;;6.07;0.95;;;;;;;10.74;85.16;100527.88;5032652;28;20052;-80
2022/08/04 03:45:57;;;;;;;6.68;0.95;;;;;;;10.67;85.54;100532.09;5050777;28;20044;-80
2022/08/04 03:48:25;;;;;;;13.18;1.08;;;;;;;10.59;86.29;100537.25;5023300;28;20091;-80
2022/08/04 03:55:09;;;;;;;4.43;0.80;;;;;;;10.46;86.61;100530.47;5030914;28;20616;-80
2022/08/04 03:57:35;;;;;;;11.55;1.23;;;;;;;10.49;86.83;100535.47;5047169;28;20051;-80
2022/08/04 04:00:11;;;;;;;3.08;0.75;;;;;;;10.50;86.58;100529.19;5047657;28;20036;-80
2022/08/04 04:02:46;;;;;;;7.68;0.73;;;;;;;10.54;86.28;100535.84;5037438;28;20044;-80
2022/08/04 04:05:36;;;;;;;4.20;0.93;;;;;;;10.50;86.54;100537.13;5049018;28;20064;-80
2022/08/04 04:08:05;;;;;;;6.93;0.80;;;;;;;10.50;86.55;100545.06;5041930;28;20033;-80
2022/08/04 04:10:33;;;;;;;2.13;0.70;;;;;;;10.51;86.74;100551.19;5048036;28;20513;-80
2022/08/04 04:13:12;;;;;;;4.40;1.05;;;;;;;10.51;86.98;100551.19;5076203;28;20056;-80
2022/08/04 04:15:40;;;;;;;4.72;0.80;;;;;;;10.53;86.92;100547.41;5033721;28;20042;-80
2022/08/04 04:18:29;;;;;;;4.88;0.73;;;;;;;10.52;86.89;100550.19;5047741;28;20466;-80
2022/08/04 04:20:58;;;;;;;5.65;0.82;;;;;;;10.48;87.39;100557.56;5039217;28;20040;-80
2022/08/04 04:24:01;;;;;;;5.03;0.82;;;;;;;10.46;87.36;100566.59;5033030;28;20026;-80
2022/08/04 04:27:01;;;;;;;6.13;0.93;;;;;;;10.40;87.64;100571.44;5039812;28;20036;-80
2022/08/04 04:29:49;;;;;;;6.90;0.77;;;;;;;10.38;87.64;100572.56;5048577;28;20549;-80
2022/08/04 04:32:49;;;;;;;2.50;0.88;;;;;;;10.36;87.72;100570.06;5046870;28;20033;-80
2022/08/04 04:35:30;;;;;;;9.73;0.82;;;;;;;10.41;87.84;100575.78;5036161;28;20040;-80
2022/08/04 04:38:05;;;;;;;4.07;0.75;;;;;;;10.48;87.55;100584.00;5062827;28;20544;-80
2022/08/04 04:40:38;;;;;;;4.18;0.75;;;;;;;10.49;87.55;100583.03;5040485;28;20053;-80
2022/08/04 04:43:22;;;;;;;7.25;0.90;;;;;;;10.50;87.39;100589.97;5048602;28;20108;-80
2022/08/04 04:46:20;;;;;;;9.60;1.13;;;;;;;10.50;87.52;100591.78;5047869;28;20032;-80
2022/08/04 04:48:46;;;;;;;7.45;0.95;;;;;;;10.51;87.60;100590.81;5051296;28;20448;-80
2022/08/04 04:51:36;;;;;;;9.32;1.15;;;;;;;10.49;87.76;100601.53;5050337;28;20093;-80
2022/08/04 04:54:17;;;;;;;6.80;1.60;;;;;;;10.46;87.48;100611.50;5037675;28;20038;-80
2022/08/04 04:56:50;;;;;;;7.85;1.20;;;;;;;10.47;87.64;100602.63;5082696;28;20041;-80
2022/08/04 04:59:21;;;;;;;3.85;0.70;;;;;;;10.43;87.90;100594.94;5049417;28;20112;-80
2022/08/04 05:02:15;;;;;;;8.13;1.30;;;;;;;10.49;87.88;100606.81;5042268;28;20025;-80
2022/08/04 05:04:46;;;;;;;4.15;0.85;;;;;;;10.49;87.48;100608.63;5046603;28;20040;-80
2022/08/04 05:07:28;;;;;;;8.10;1.17;;;;;;;10.48;87.57;100607.78;5057118;28;20382;-80
2022/08/04 05:10:29;;;;;;;4.38;0.88;;;;;;;10.47;87.59;100616.69;5049371;28;20035;-80
2022/08/04 05:13:19;;;;;;;6.18;0.60;;;;;;;10.47;87.48;100614.03;5067627;28;20110;-80
2022/08/04 05:15:48;;;;;;;4.25;1.23;;;;;;;10.50;87.70;100611.13;5051927;28;20035;-80
2022/08/04 05:18:20;;;;;;;2.45;0.65;;;;;;;10.52;87.67;100626.84;5042537;28;20051;-80
2022/08/04 05:21:04;;;;;;;6.38;1.23;;;;;;;10.52;87.25;100618.91;5052820;28;20025;-80
2022/08/04 05:23:36;;;;;;;5.22;0.70;;;;;;;10.49;87.71;100620.03;5053051;28;20033;-80
2022/08/04 05:26:09;;;;;;;4.85;0.95;;;;;;;10.53;87.88;100629.34;5051798;28;20053;-80
2022/08/04 05:28:50;;;;;;;7.57;0.93;;;;;;;10.53;87.61;100626.69;5062439;28;20045;-80
2022/08/04 05:31:24;;;;;;;2.95;0.70;;;;;;;10.51;87.92;100628.63;5051295;28;20542;-80
2022/08/04 05:33:56;;;;;;;14.23;0.80;;;;;;;10.52;88.01;100627.69;5037472;28;20030;-80
2022/08/04 05:36:29;;;;;;;5.65;0.80;;;;;;;10.56;88.24;100635.34;5053348;28;20032;-79
2022/08/04 05:38:58;;;;;;;6.03;0.80;;;;;;;10.56;88.19;100636.16;5056022;28;20036;-80
2022/08/04 05:41:26;;;;;;;4.72;0.98;;;;;;;10.60;88.60;100634.06;5054598;28;20029;-80
2022/08/04 05:43:53;;;;;;;6.22;1.27;;;;;;;10.67;88.19;100648.41;5050486;28;20033;-80
2022/08/04 05:46:19;;;;;;;2.85;0.60;;;;;;;10.70;88.03;100636.72;5051684;28;20028;-80
2022/08/04 05:48:46;;;;;;;5.03;1.00;;;;;;;10.74;88.11;100648.66;5045452;28;20036;-80
2022/08/04 05:51:14;;;;;;;5.75;0.80;;;;;;;10.77;88.22;100654.50;5042611;28;20035;-80
2022/08/04 05:53:43;;;;;;;4.88;0.63;;;;;;;10.76;88.27;100663.44;5049715;28;20032;-80
2022/08/04 05:56:12;;;;;;;7.00;0.80;;;;;;;10.75;88.14;100660.94;5051251;28;20033;-80
2022/08/04 05:58:40;;;;;;;3.70;0.70;;;;;;;10.72;88.36;100662.03;5036103;28;20033;-81
2022/08/04 06:01:07;;;;;;;5.95;0.60;;;;;;;10.72;88.73;100667.31;5049911;28;20025;-80
2022/08/04 06:03:35;;;;;;;2.50;0.73;;;;;;;10.81;88.72;100678.88;5052485;28;20549;-80
2022/08/04 06:06:02;;;;;;;2.92;0.52;;;;;;;10.85;88.88;100684.69;5032867;28;20025;-80
2022/08/04 06:08:29;;;;;;;6.65;0.82;;;;;;;10.85;88.64;100679.41;5045658;28;20037;-80
2022/08/04 06:11:00;;;;;;;6.35;1.08;;;;;;;10.88;89.09;100689.69;5049778;28;20068;-80
2022/08/04 06:13:33;;;;;;;5.57;0.70;;;;;;;10.88;88.51;100687.06;5049350;28;20049;-80
2022/08/04 06:16:01;;;;;;;6.15;0.50;;;;;;;10.90;89.16;100693.91;5043525;28;20120;-80
2022/08/04 06:18:29;;;;;;;4.07;0.60;;;;;;;10.91;89.35;100695.56;5054431;28;20128;-80
2022/08/04 06:20:57;;;;;;;6.38;0.82;;;;;;;10.94;89.23;100702.38;5043028;28;20385;-80
2022/08/04 06:23:25;;;;;;;2.78;0.55;;;;;;;10.96;89.71;100695.13;5038631;28;20025;-80
2022/08/04 06:25:56;;;;;;;1.25;0.50;;;;;;;10.95;89.55;100698.75;5053245;28;20021;-80
2022/08/04 06:28:22;;;;;;;2.45;0.50;;;;;;;10.90;90.27;100701.81;5040590;28;20367;-80
2022/08/04 06:30:49;;;;;;;4.43;0.90;;;;;;;10.92;90.67;100713.06;5043040;28;20086;-80
2022/08/04 06:33:36;;;;;;;5.55;0.80;;;;;;;10.93;90.96;100716.56;5046533;28;20032;-80
2022/08/04 06:36:05;;;;;;;5.85;0.73;;;;;;;10.97;90.73;100712.69;5040232;28;20037;-80
2022/08/04 06:38:35;;;;;;;6.00;0.80;;;;;;;10.98;90.99;100722.28;5039888;28;20486;-80
2022/08/04 06:41:02;;;;;;;5.75;0.60;;;;;;;11.01;91.28;100723.81;5048810;28;20058;-80
2022/08/04 06:43:30;;;;;;;6.35;0.70;;;;;;;11.04;91.14;100719.06;5058350;28;20504;-80
2022/08/04 06:46:01;;;;;;;1.98;0.52;;;;;;;11.13;90.94;100727.97;5045300;28;20104;-80
2022/08/04 06:48:28;;;;;;;6.00;0.85;;;;;;;11.19;91.22;100726.59;5036105;28;20044;-80
2022/08/04 06:50:55;;;;;;;4.57;0.52;;;;;;;11.26;91.32;100732.16;5075319;28;20052;-80
2022/08/04 06:53:21;;;;;;;4.18;0.60;;;;;;;11.32;91.33;100731.59;5074304;28;20052;-81
2022/08/04 06:55:49;;;;;;;5.53;0.68;;;;;;;11.35;91.10;100739.22;5043610;28;20032;-80
2022/08/04 06:58:17;;;;;;;5.07;0.73;;;;;;;11.40;91.36;100742.25;5047316;28;20024;-80
2022/08/04 07:00:46;;;;;;;5.40;0.70;;;;;;;11.48;91.35;100746.03;5040134;28;20453;-80
2022/08/04 07:03:14;;;;;;;8.68;0.70;;;;;;;11.51;91.40;100732.50;5042566;28;20045;-80
2022/08/04 07:05:41;;;;;;;5.75;0.70;;;;;;;11.54;91.49;100745.47;5045514;28;20435;-79
2022/08/04 07:08:10;;;;;;;4.75;0.77;;;;;;;11.59;91.18;100745.88;5047678;28;20194;-80
2022/08/04 07:10:36;;;;;;;3.40;0.77;;;;;;;11.69;91.22;100745.81;5043906;28;20072;-81
2022/08/04 07:13:03;;;;;;;6.38;0.70;;;;;;;11.76;90.85;100754.03;5038522;28;20501;-81
2022/08/04 07:15:29;;;;;;;4.93;0.95;;;;;;;11.84;90.69;100758.59;5047099;28;20076;-81
2022/08/04 07:18:00;;;;;;;6.55;0.80;;;;;;;11.86;90.09;100756.66;5041467;28;20040;-81
2022/08/04 07:20:28;;;;;;;9.90;0.57;;;;;;;11.94;90.20;100767.34;5042572;28;20029;-80
2022/08/04 07:22:55;;;;;;;7.35;0.88;;;;;;;12.01;89.78;100757.84;5046779;28;20470;-80
2022/08/04 07:25:22;;;;;;;9.77;1.00;;;;;;;12.17;89.47;100767.00;5038302;28;20017;-81
2022/08/04 07:27:47;;;;;;;7.53;1.05;;;;;;;12.36;89.39;100770.56;5050347;28;20537;-81
2022/08/04 07:30:14;;;;;;;12.20;1.23;;;;;;;12.62;88.80;100762.72;5047555;28;20040;-80
2022/08/04 07:32:42;;;;;;;10.45;0.77;;;;;;;12.94;88.37;100773.78;5047296;28;20044;-80
2022/08/04 07:35:10;;;;;;;8.40;0.75;;;;;;;13.27;88.27;100766.09;5031181;28;20030;-80
2022/08/04 07:37:36;;;;;;;6.20;0.80;;;;;;;13.58;86.83;100766.66;5048615;28;20425;-80
2022/08/04 07:40:04;;;;;;;5.53;0.45;;;;;;;13.79;85.63;100770.78;5059702;28;20037;-80
2022/08/04 07:42:30;;;;;;;7.63;0.80;;;;;;;14.01;85.32;100772.88;5049729;28;20542;-80
2022/08/04 07:44:57;;;;;;;7.57;0.77;;;;;;;14.19;83.93;100769.28;5046797;28;20033;-80
2022/08/04 07:47:23;;;;;;;5.28;0.60;;;;;;;14.44;83.24;100774.72;5043204;28;20029;-80
2022/08/04 07:49:49;;;;;;;5.53;0.82;;;;;;;14.60;82.51;100775.75;5050455;28;20543;-80
2022/08/04 07:52:16;;;;;;;7.60;0.98;;;;;;;14.59;80.75;100768.75;5031422;28;20028;-80
2022/08/04 07:54:42;;;;;;;6.03;0.55;;;;;;;14.66;80.31;100775.09;5054136;28;20389;-80
2022/08/04 07:57:08;;;;;;;3.85;0.50;;;;;;;14.67;79.61;100778.59;5042808;28;20033;-80
2022/08/04 07:59:34;;;;;;;4.60;0.68;;;;;;;14.69;78.87;100771.25;5042832;28;20029;-80
2022/08/04 08:02:01;;;;;;;4.40;0.82;;;;;;;14.65;78.34;100778.75;5045455;28;20037;-80
2022/08/04 08:04:28;;;;;;;8.73;0.63;;;;;;;14.68;78.14;100786.41;5071774;28;20144;-81
2022/08/04 08:06:55;;;;;;;9.10;0.70;;;;;;;14.71;77.88;100782.59;5080395;28;20112;-80
2022/08/04 08:09:21;;;;;;;5.82;0.50;;;;;;;14.70;77.20;100786.25;5041054;28;20044;-80
2022/08/04 08:11:49;;;;;;;5.43;0.90;;;;;;;14.44;75.46;100781.84;5081785;28;20120;-81
2022/08/04 08:14:16;;;;;;;5.15;0.50;;;;;;;14.31;75.95;100791.13;5045105;28;20051;-80
2022/08/04 08:16:43;;;;;;;3.63;0.38;;;;;;;14.27;75.35;100793.25;5043939;28;20072;-80
2022/08/04 08:19:09;;;;;;;4.32;0.60;;;;;;;14.19;75.04;100782.59;5044737;28;20037;-81
2022/08/04 08:21:35;;;;;;;4.90;0.70;;;;;;;14.00;74.34;100795.13;5034956;28;20469;-81
2022/08/04 08:24:01;;;;;;;20.88;0.90;;;;;;;13.95;74.89;100786.78;5049509;28;20112;-81
2022/08/04 08:26:27;;;;;;;5.80;0.88;;;;;;;14.09;75.06;100797.84;5060230;28;20041;-81
2022/08/04 08:28:53;;;;;;;5.90;0.90;;;;;;;14.20;74.77;100794.91;5054400;28;20033;-80
2022/08/04 08:31:19;;;;;;;4.60;1.08;;;;;;;14.25;74.21;100803.22;5046720;28;20104;-80
2022/08/04 08:33:47;;;;;;;6.93;0.80;;;;;;;14.27;74.32;100790.59;5045657;28;20036;-80
2022/08/04 08:36:27;;;;;;;7.97;0.82;;;;;;;14.25;73.68;100792.56;5030277;28;20033;-80
2022/08/04 08:38:56;;;;;;;10.95;1.40;;;;;;;14.30;73.36;100799.25;5052745;28;20049;-80
2022/08/04 08:41:25;;;;;;;12.98;0.90;;;;;;;14.24;73.14;100806.88;5063042;28;20029;-80
2022/08/04 08:44:28;;;;;;;6.60;1.25;;;;;;;14.27;73.02;100803.06;5050454;28;20481;-80
2022/08/04 08:47:25;;;;;;;5.85;0.85;;;;;;;14.33;72.69;100804.25;5039321;28;20033;-80
2022/08/04 08:50:16;;;;;;;4.13;0.60;;;;;;;14.32;72.49;100806.06;5049191;28;20394;-81
2022/08/04 08:52:58;;;;;;;11.05;1.58;;;;;;;14.32;72.81;100810.53;5038757;28;20060;-81
2022/08/04 08:55:42;;;;;;;6.78;0.75;;;;;;;14.40;72.84;100802.59;5051404;28;20036;-80
2022/08/04 08:58:42;;;;;;;8.48;1.02;;;;;;;14.40;71.13;100799.94;5052758;28;20037;-81
2022/08/04 09:01:10;;;;;;;12.63;1.33;;;;;;;14.47;71.11;100816.09;5048311;28;20033;-80
2022/08/04 09:03:57;;;;;;;4.38;0.68;;;;;;;14.42;69.90;100805.94;5051672;28;20166;-80
2022/08/04 09:06:44;;;;;;;6.18;1.02;;;;;;;14.43;68.85;100812.09;5045281;28;20054;-80
2022/08/04 09:09:22;;;;;;;6.40;0.90;;;;;;;14.49;70.18;100814.94;5036427;28;20794;-80
2022/08/04 09:12:01;;;;;;;7.13;1.27;;;;;;;14.48;69.70;100810.63;5080318;28;20036;-80
2022/08/04 09:14:45;;;;;;;5.80;1.00;;;;;;;14.64;69.21;100803.69;5075325;28;20580;-80
2022/08/04 09:17:32;;;;;;;6.53;1.00;;;;;;;14.60;68.88;100813.84;5045509;28;20025;-80
2022/08/04 09:20:59;;;;;;;5.20;1.15;;;;;;;14.53;67.60;100812.78;5031623;28;20159;-80
2022/08/04 09:24:02;;;;;;;6.72;1.08;;;;;;;14.71;68.23;100806.53;4986127;28;20057;-80
2022/08/04 09:26:37;;;;;;;8.52;1.58;;;;;;;14.90;68.45;100813.41;5054599;28;20029;-81
2022/08/04 09:29:20;;;;;;;2.97;0.70;;;;;;;14.93;66.93;100809.59;5035774;28;20474;-80
2022/08/04 09:32:03;;;;;;;9.75;1.25;;;;;;;14.80;66.39;100821.53;5051657;28;20112;-80
2022/08/04 09:35:18;;;;;;;7.63;1.83;;;;;;;14.81;66.55;100806.41;5038418;28;20046;-82
2022/08/04 09:38:05;;;;;;;7.78;0.82;;;;;;;14.76;65.62;100814.88;5051549;28;20068;-82
2022/08/04 09:40:48;;;;;;;3.85;0.88;;;;;;;14.69;65.67;100812.00;5050503;28;20049;-80
2022/08/04 09:43:40;;;;;;;6.47;0.75;;;;;;;14.61;63.63;100820.81;5048345;28;20025;-80
2022/08/04 09:46:25;;;;;;;5.07;0.88;;;;;;;14.73;64.46;100826.66;5067306;28;20052;-81
2022/08/04 09:49:17;;;;;;;7.95;1.08;;;;;;;14.90;64.38;100815.25;5036593;28;21204;-80
2022/08/04 09:51:59;;;;;;;7.70;0.82;;;;;;;14.92;63.85;100808.78;5043661;28;20042;-80
2022/08/04 09:55:04;;;;;;;5.25;0.90;;;;;;;14.93;63.64;100813.09;5042025;28;20539;-80
2022/08/04 09:57:30;;;;;;;6.68;0.70;;;;;;;15.05;64.12;100808.25;5048865;28;20107;-80
2022/08/04 10:00:16;;;;;;;6.07;1.05;;;;;;;15.19;63.58;100817.44;5028036;28;20179;-80
2022/08/04 10:02:55;;;;;;;4.80;0.90;;;;;;;15.16;63.11;100820.41;5049013;28;21547;-80
2022/08/04 10:05:57;;;;;;;9.57;1.25;;;;;;;15.06;62.94;100825.94;5029554;28;20037;-80
2022/08/04 10:08:47;;;;;;;3.38;0.80;;;;;;;15.08;63.38;100829.22;5019772;28;20035;-80
2022/08/04 10:11:20;;;;;;;6.88;1.08;;;;;;;15.26;62.78;100825.59;5049117;28;20461;-80
2022/08/04 10:13:53;;;;;;;6.10;0.68;;;;;;;15.25;63.09;100821.28;5057388;28;20536;-80
2022/08/04 10:16:47;;;;;;;8.65;1.35;;;;;;;15.13;61.75;100826.91;5044191;28;20439;-80
2022/08/04 10:19:31;;;;;;;11.07;1.05;;;;;;;15.27;62.04;100834.41;5048048;28;20032;-80
2022/08/04 10:22:16;;;;;;;8.57;1.00;;;;;;;15.47;62.19;100833.09;5048511;28;20075;-80
2022/08/04 10:25:19;;;;;;;5.47;0.75;;;;;;;15.60;60.12;100835.25;5050688;28;20059;-81
2022/08/04 10:27:50;;;;;;;5.85;0.50;;;;;;;15.43;60.58;100837.06;5048323;28;20029;-80
2022/08/04 10:30:18;;;;;;;6.68;0.75;;;;;;;15.29;60.96;100843.09;5019464;28;20367;-81
2022/08/04 10:32:57;;;;;;;4.57;0.75;;;;;;;15.22;60.86;100845.56;5038299;28;20513;-80
2022/08/04 10:35:25;;;;;;;6.05;0.85;;;;;;;15.35;61.22;100843.22;5064026;28;20044;-80
2022/08/04 10:38:27;;;;;;;7.68;1.48;;;;;;;15.39;61.02;100841.06;5053270;28;20025;-81
2022/08/04 10:41:22;;;;;;;2.03;0.47;;;;;;;15.21;58.91;100849.25;5048381;28;20017;-82
2022/08/04 10:44:01;;;;;;;7.90;1.00;;;;;;;15.02;60.75;100855.69;5078479;28;20108;-81
2022/08/04 10:46:35;;;;;;;5.57;1.08;;;;;;;14.87;60.30;100862.47;5047355;28;20048;-80
2022/08/04 10:49:08;;;;;;;10.75;1.17;;;;;;;15.04;61.07;100859.00;5049650;28;20029;-80
2022/08/04 10:51:35;;;;;;;3.60;0.75;;;;;;;15.30;61.20;100852.72;5051774;28;20063;-80
2022/08/04 10:54:11;;;;;;;6.07;0.70;;;;;;;15.59;61.23;100852.22;5046417;28;20071;-80
2022/08/04 10:56:45;;;;;;;7.32;1.42;;;;;;;15.92;60.69;100850.50;5037880;28;20095;-80
2022/08/04 10:59:18;;;;;;;6.20;0.93;;;;;;;16.02;60.16;100847.69;5078192;28;20086;-81
2022/08/04 11:01:48;;;;;;;5.95;0.80;;;;;;;16.05;60.34;100845.53;5046581;28;20040;-80
2022/08/04 11:04:23;;;;;;;4.25;1.10;;;;;;;16.07;58.88;100842.69;5048595;28;20064;-80
2022/08/04 11:06:51;;;;;;;9.85;1.10;;;;;;;16.12;58.49;100853.66;5079578;28;20033;-80
2022/08/04 11:09:19;;;;;;;9.93;1.13;;;;;;;16.42;58.32;100856.56;5050127;28;20029;-81
2022/08/04 11:11:52;;;;;;;5.40;0.90;;;;;;;16.55;57.32;100848.00;5045152;28;20036;-82
2022/08/04 11:14:21;;;;;;;4.32;0.73;;;;;;;16.32;57.49;100854.13;5042651;28;20045;-80
2022/08/04 11:16:56;;;;;;;4.70;0.80;;;;;;;15.98;57.55;100852.53;5081731;28;20037;-80
2022/08/04 11:19:43;;;;;;;3.38;0.65;;;;;;;15.68;57.21;100863.72;5045984;28;20530;-81
2022/08/04 11:22:22;;;;;;;5.88;0.90;;;;;;;15.56;58.52;100857.88;5023615;28;20036;-82
2022/08/04 11:25:04;;;;;;;8.73;0.88;;;;;;;15.44;58.36;100862.72;5050006;28;20111;-82
2022/08/04 11:27:50;;;;;;;6.60;0.80;;;;;;;15.61;58.56;100852.06;5041147;28;20037;-82
2022/08/04 11:30:16;;;;;;;4.15;0.73;;;;;;;15.92;58.57;100855.84;5042904;28;20060;-80
2022/08/04 11:33:26;;;;;;;1.75;0.52;;;;;;;16.02;55.01;100872.53;5049236;28;20490;-80
2022/08/04 11:35:56;;;;;;;7.20;1.23;;;;;;;16.29;54.99;100874.97;5067892;28;20047;-80
2022/08/04 11:38:32;;;;;;;3.75;0.63;;;;;;;16.45;54.38;100872.22;5061586;28;20038;-80
2022/08/04 11:41:10;;;;;;;6.32;1.10;;;;;;;16.64;54.90;100859.47;5045121;28;20044;-80
2022/08/04 11:43:57;;;;;;;5.47;0.85;;;;;;;16.73;55.44;100874.44;5046031;28;20547;-81
2022/08/04 11:46:30;;;;;;;6.75;0.73;;;;;;;16.65;54.53;100873.63;5035533;28;20051;-80
2022/08/04 11:49:02;;;;;;;3.88;0.80;;;;;;;16.55;54.45;100876.50;5018245;28;20436;-80
2022/08/04 11:51:30;;;;;;;5.85;0.80;;;;;;;16.48;54.25;100877.22;5045042;28;20045;-80
2022/08/04 11:53:58;;;;;;;4.10;0.80;;;;;;;16.22;54.21;100883.66;5043490;28;20503;-82
2022/08/04 11:56:24;;;;;;;2.83;0.60;;;;;;;15.94;54.45;100893.84;5051142;28;20094;-82
2022/08/04 11:58:50;;;;;;;6.03;0.85;;;;;;;15.94;55.01;100884.00;5046379;28;20033;-82
2022/08/04 12:01:26;;;;;;;6.30;0.70;;;;;;;16.24;55.45;100884.28;5042645;28;20033;-82
2022/08/04 12:03:55;;;;;;;5.72;0.60;;;;;;;16.53;55.22;100881.22;5043963;28;20433;-80
2022/08/04 12:06:24;;;;;;;5.40;0.60;;;;;;;16.56;54.78;100887.00;5045694;28;20025;-80
2022/08/04 12:09:02;;;;;;;2.90;0.88;;;;;;;16.67;53.74;100890.31;5058138;28;20445;-82
2022/08/04 12:11:41;;;;;;;5.35;0.60;;;;;;;16.87;53.42;100880.03;5049445;28;20474;-82